Latest Coastal Weather Observations for Cape Jaffa

IDS60701

Issued at 9:21 am CST Tuesday 22 August 2017 (issued every 10 minutes, with the page automatically refreshed every 10 minutes)

About coastal observations | Map of coastal stations | Coastal observations for SA | Marine services | Other Formats
Station Details ID: 026095 Name: THE LIMESTONE Lat: -36.97 Lon: 139.72 Height: 17.0 m
Data from the previous 72 hours. | See also: Recent months at Cape Jaffa
Date/Time
CST
Temp
°C
Wind Pressure Rain since
9am
mm
Weather Cloud Vis
km
Sea
Height
m
Swell
Dir  Spd
kts
Gust
kts
hPa Trend Height
m
Period
s
Dir
22/09:00am 13.3 WNW 5 8 1019.8 - 0.0 - - - - - - -
22/08:30am 12.4 W 6 8 1019.8 - 0.0 - - - - - - -
22/08:00am 12.0 W 7 9 1019.5 - 0.0 - - - - - - -
22/07:30am 11.9 W 8 11 1019.1 - 0.0 - - - - - - -
22/07:00am 11.5 W 9 12 1019.0 - 0.0 - - - - - - -
22/06:30am 11.6 W 10 15 1018.5 - 0.0 - - - - - - -
22/06:00am 11.4 WSW 9 13 1018.2 - 0.0 - - - - - - -
22/05:30am 11.3 W 8 12 1018.0 - 0.0 - - - - - - -
22/05:00am 11.1 WSW 6 9 1017.8 - 0.0 - - - - - - -
22/04:30am 10.7 SW 7 10 1017.6 - 0.0 - - - - - - -
22/04:00am 10.4 SW 9 12 1017.3 - 0.0 - - - - - - -
22/03:30am 11.0 WSW 13 16 1017.1 - 0.0 - - - - - - -
22/03:00am 11.7 WSW 9 12 1017.1 - 0.0 - - - - - - -
22/02:30am 11.4 WSW 7 10 1017.2 - 0.0 - - - - - - -
22/02:00am 9.4 WSW 4 7 1017.2 - 0.0 - - - - - - -
22/01:30am 7.9 CALM 0 0 1017.2 - 0.0 - - - - - - -
22/01:00am 7.8 CALM 0 0 1017.2 - 0.0 - - - - - - -
22/12:30am 7.6 NNW 3 4 1017.4 - 0.0 - - - - - - -
22/12:00am 7.3 N 5 5 1017.1 - 0.0 - - - - - - -
 
Date/Time
CST
Temp
°C
Wind Pressure Rain since
9am
mm
Weather Cloud Vis
km
Sea
Height
m
Swell
Dir  Spd
kts
Gust
kts
hPa Trend Height
m
Period
s
Dir
21/11:30pm 7.3 NNE 5 5 1017.1 - 0.0 - - - - - - -
21/11:00pm 8.5 NNE 3 3 1017.1 - 0.0 - - - - - - -
21/10:30pm 7.6 CALM 0 0 1017.1 - 0.0 - - - - - - -
21/10:00pm 6.8 NE 1 2 1017.1 - 0.0 - - - - - - -
21/09:30pm 8.0 CALM 0 1 1016.8 - 0.0 - - - - - - -
21/09:00pm 7.0 CALM 0 0 1016.7 - 0.0 - - - - - - -
21/08:30pm 8.3 CALM 0 0 1016.4 - 0.0 - - - - - - -
21/08:00pm 8.5 CALM 0 1 1016.2 - 0.0 - - - - - - -
21/07:30pm 8.4 WSW 2 3 1015.7 - 0.0 - - - - - - -
21/07:00pm 8.8 WSW 3 3 1015.2 - 0.0 - - - - - - -
21/06:30pm 8.3 WSW 3 4 1015.0 - 0.0 - - - - - - -
21/06:00pm 9.1 WSW 2 3 1014.4 - 0.0 - - - - - - -
21/05:30pm 9.6 WSW 5 6 1014.3 - 0.0 - - - - - - -
21/05:00pm 11.0 WSW 5 7 1013.6 - 0.0 - - - - - - -
21/04:30pm 11.3 WSW 8 10 1013.1 - 0.0 - - - - - - -
21/04:00pm 11.3 WSW 8 10 1012.8 - 0.0 - - - - - - -
21/03:30pm 12.1 W 7 9 1012.3 - 0.0 - - - - - - -
21/03:00pm 11.9 W 8 9 1012.1 - 0.0 - - - - - - -
21/02:30pm 12.7 WNW 7 10 1011.7 - 0.0 - - - - - - -
21/02:00pm 12.9 NW 6 7 1011.3 - 0.0 - - - - - - -
21/01:30pm 12.6 NE 5 8 1010.8 - 0.0 - - - - - - -
21/01:00pm 12.1 NNE 6 9 1010.9 - 0.0 - - - - - - -
21/12:30pm 11.9 NNE 6 9 1011.3 - 0.0 - - - - - - -
21/12:00pm 11.4 NNE 6 9 1011.5 - 0.0 - - - - - - -
21/11:30am 10.2 NE 5 7 1011.6 - 0.0 - - - - - - -
21/11:00am 9.4 NE 10 12 1011.4 - 0.0 - - - - - - -
21/10:30am 9.3 NE 10 12 1011.3 - 0.0 - - - - - - -
21/10:00am 8.9 NE 10 13 1011.2 - 0.0 - - - - - - -
21/09:30am 9.4 NE 12 16 1011.3 - 0.0 - - - - - - -
21/09:00am 8.0 NE 13 16 1011.3 - 3.8 Recent precip. - - - - - -
21/08:30am 7.4 NE 11 14 1011.1 - 3.8 - - - - - - -
21/08:00am 7.3 NE 10 13 1011.2 - 3.6 - - - - - - -
21/07:30am 7.1 ENE 8 10 1010.8 - 3.6 - - - - - - -
21/07:00am 6.7 ENE 8 10 1010.5 - 3.6 - - - - - - -
21/06:30am 6.8 ENE 10 12 1010.0 - 3.6 - - - - - - -
21/06:00am 7.0 NE 11 15 1009.5 - 3.6 - - - - - - -
21/05:30am 6.9 NE 13 16 1009.4 - 3.6 - - - - - - -
21/05:00am 6.7 NE 12 14 1009.6 - 3.6 - - - - - - -
21/04:30am 6.8 ENE 13 15 1009.6 - 3.6 - - - - - - -
21/04:00am 7.0 NE 11 15 1010.1 - 3.6 - - - - - - -
21/03:30am 7.0 NE 13 17 1010.2 - 3.6 - - - - - - -
21/03:00am 6.9 NE 12 16 1010.5 - 3.6 - - - - - - -
21/02:30am 6.8 NE 13 17 1010.7 - 3.6 - - - - - - -
21/02:00am 6.8 NE 14 17 1011.1 - 3.6 - - - - - - -
21/01:30am 6.8 NE 16 20 1011.6 - 3.6 - - - - - - -
21/01:00am 6.8 NE 16 20 1012.1 - 3.2 - - - - - - -
21/12:30am 7.0 NE 17 21 1012.7 - 3.2 - - - - - - -
21/12:00am 7.2 NE 16 21 1013.2 - 2.8 Rain - - - - - -
 
Date/Time
CST
Temp
°C
Wind Pressure Rain since
9am
mm
Weather Cloud Vis
km
Sea
Height
m
Swell
Dir  Spd
kts
Gust
kts
hPa Trend Height
m
Period
s
Dir
20/11:30pm 7.5 NE 17 23 1013.5 - 2.4 - - - - - - -
20/11:00pm 7.7 NE 14 18 1013.9 - 2.0 - - - - - - -
20/10:30pm 7.8 NNE 15 21 1014.5 - 1.8 - - - - - - -
20/10:00pm 7.9 N 19 25 1015.0 - 1.2 - - - - - - -
20/09:40pm 8.8 NNE 16 28 1015.1 - 0.4 - - - - - - -
20/09:30pm 8.4 NNE 15 20 1015.2 - 0.2 - - - - - - -
20/09:10pm 9.4 NNE 15 26 1014.9 - 0.0 - - - - - - -
20/09:00pm 9.5 NE 13 15 1015.0 - 0.0 - - - - - - -
20/08:30pm 9.0 ENE 11 16 1015.2 - 0.0 - - - - - - -
20/08:00pm 8.6 ENE 8 9 1015.6 - 0.0 - - - - - - -
20/07:30pm 8.5 ENE 7 8 1015.5 - 0.0 - - - - - - -
20/07:00pm 8.6 ENE 7 9 1015.5 - 0.0 - - - - - - -
20/06:30pm 8.8 E 10 12 1015.5 - 0.0 - - - - - - -
20/06:00pm 8.9 E 7 9 1015.7 - 0.0 - - - - - - -
20/05:30pm 9.0 E 7 8 1016.2 - 0.0 - - - - - - -
20/05:00pm 9.5 E 7 8 1016.7 - 0.0 - - - - - - -
20/04:30pm 9.8 E 5 6 1017.2 - 0.0 - - - - - - -
20/04:00pm 10.3 ENE 3 4 1017.6 - 0.0 - - - - - - -
20/03:30pm 10.4 NE 7 10 1017.8 - 0.0 - - - - - - -
20/03:00pm 10.5 NNE 8 11 1018.0 - 0.0 - - - - - - -
20/02:30pm 10.8 NE 12 15 1018.3 - 0.0 - - - - - - -
20/02:00pm 10.8 NNE 13 16 1018.8 - 0.0 - - - - - - -
20/01:30pm 10.1 NNE 11 15 1019.5 - 0.0 - - - - - - -
20/01:00pm 10.4 NE 13 17 1020.4 - 0.0 - - - - - - -
20/12:30pm 9.7 NE 14 18 1020.7 - 0.0 - - - - - - -
20/12:00pm 8.9 NE 10 14 1021.6 - 0.0 - - - - - - -
20/11:30am 8.7 NE 11 15 1022.8 - 0.0 - - - - - - -
20/11:00am 8.6 NE 8 11 1023.3 - 0.0 - - - - - - -
20/10:30am 7.7 NE 7 9 1023.8 - 0.0 - - - - - - -
20/10:00am 6.9 NE 8 11 1024.4 - 0.0 - - - - - - -
20/09:30am 7.0 NE 9 11 1025.2 - 0.0 - - - - - - -
20/09:00am 6.5 NE 8 9 1025.2 - 0.0 - - - - - - -
20/08:30am 4.9 ENE 8 10 1025.7 - 0.0 - - - - - - -
20/08:00am 4.4 ENE 7 8 1025.7 - 0.0 - - - - - - -
20/07:30am 3.9 ENE 8 10 1025.5 - 0.0 - - - - - - -
20/07:00am 3.0 ENE 7 8 1025.7 - 0.0 - - - - - - -
20/06:30am 2.4 ENE 6 8 1025.8 - 0.0 - - - - - - -
20/06:00am 2.7 ENE 7 8 1025.7 - 0.0 - - - - - - -
20/05:30am 3.0 ENE 7 8 1025.9 - 0.0 - - - - - - -
20/05:00am 2.8 ENE 7 8 1026.0 - 0.0 - - - - - - -
20/04:30am 2.4 E 7 8 1026.0 - 0.0 - - - - - - -
20/04:00am 2.9 E 7 8 1026.1 - 0.0 - - - - - - -
20/03:30am 3.0 E 7 8 1026.1 - 0.0 - - - - - - -
20/03:00am 3.0 E 7 7 1026.1 - 0.0 - - - - - - -
20/02:30am 3.6 E 7 8 1026.2 - 0.0 - - - - - - -
20/02:00am 3.7 E 6 7 1026.7 - 0.0 - - - - - - -
20/01:30am 3.5 E 5 6 1026.8 - 0.0 - - - - - - -
20/01:00am 4.1 ESE 6 7 1026.8 - 0.0 - - - - - - -
20/12:30am 4.1 ESE 5 7 1026.7 - 0.0 - - - - - - -
20/12:00am 4.3 E 5 6 1027.0 - 0.0 - - - - - - -
 
Date/Time
CST
Temp
°C
Wind Pressure Rain since
9am
mm
Weather Cloud Vis
km
Sea
Height
m
Swell
Dir  Spd
kts
Gust
kts
hPa Trend Height
m
Period
s
Dir
19/11:30pm 4.8 ESE 5 5 1027.3 - 0.0 - - - - - - -
19/11:00pm 5.0 ESE 5 6 1027.7 - 0.0 - - - - - - -
19/10:30pm 5.4 ESE 5 5 1028.0 - 0.0 - - - - - - -
19/10:00pm 5.7 ESE 5 5 1028.1 - 0.0 - - - - - - -
19/09:30pm 5.9 ESE 5 5 1028.3 - 0.0 - - - - - - -
19/09:00pm 7.0 SE 4 5 1028.3 - 0.0 - - - - - - -
19/08:30pm 7.5 SE 5 6 1028.5 - 0.0 - - - - - - -
19/08:00pm 7.9 SSE 4 5 1028.5 - 0.0 - - - - - - -
19/07:30pm 8.1 SE 4 5 1028.4 - 0.0 - - - - - - -
19/07:00pm 8.6 S 4 5 1028.4 - 0.0 - - - - - - -
19/06:30pm 8.2 SW 5 5 1028.6 - 0.0 - - - - - - -
19/06:00pm 8.4 SW 4 5 1028.5 - 0.0 - - - - - - -
19/05:30pm 9.1 SSW 5 5 1028.1 - 0.0 - - - - - - -
19/05:00pm 10.9 SSW 5 6 1027.8 - 0.0 - - - - - - -
19/04:30pm 11.7 SW 7 8 1027.5 - 0.0 - - - - - - -
19/04:00pm 12.1 SW 6 8 1027.5 - 0.0 - - - - - - -
19/03:30pm 12.5 SW 7 9 1027.8 - 0.0 - - - - - - -
19/03:00pm 12.3 SSW 6 8 1027.8 - 0.0 - - - - - - -
19/02:30pm 12.6 SW 6 8 1028.2 - 0.0 - - - - - - -
19/02:00pm 12.7 SW 5 7 1028.5 - 0.0 - - - - - - -
19/01:30pm 12.7 SSW 5 9 1028.6 - 0.0 - - - - - - -
19/01:00pm 12.8 SSW 5 8 1028.7 - 0.0 - - - - - - -
19/12:30pm 12.9 SSW 5 8 1028.9 - 0.0 - - - - - - -
19/12:00pm 12.5 SW 5 8 1029.2 - 0.0 - - - - - - -
19/11:30am 12.4 SSW 3 7 1029.4 - 0.0 - - - - - - -
19/11:00am 10.9 WNW 4 6 1029.5 - 0.0 - - - - - - -
19/10:30am 10.9 SSW 6 10 1029.6 - 0.0 - - - - - - -
19/10:00am 12.0 SE 1 4 1029.5 - 0.0 - - - - - - -
19/09:30am 11.1 SE 2 3 1029.6 - 0.0 - - - - - - -

Other Formats:

Comma delimited format used in spreadsheet applications
http://www.bom.gov.au/fwo/IDS60701/IDS60701.94813.axf

JavaScript Object Notation format (JSON) in row-major order
http://www.bom.gov.au/fwo/IDS60701/IDS60701.94813.json